GJONW EGBO-EGCW
Flight info
| Callsign | GJONW |
|---|---|
| Flight time | 0h 18m |
| Altitude | 5000 |
| Route | RETSI |
| Aircraft | B36T/L-BDFGLORY/S |
Departure
| Time | 2026-04-26 19:29 |
|---|---|
| Airport | Wolverhampton Halfpenny Green Airport (EGBO) |
Arrival
| Time | 2026-04-26 19:48 |
|---|---|
| Airport | Welshpool Airport (EGCW) |
| Time | Latitude | Longitude | Altitude | Speed | Heading |
|---|---|---|---|---|---|
| 2026-04-26 19:24 | 52.51594 | -2.26429 | 278 ft | 0 kts | 5° |
| 2026-04-26 19:25 | 52.51600 | -2.26428 | 278 ft | 6 kts | 5° |
| 2026-04-26 19:25 | 52.51564 | -2.26423 | 280 ft | 16 kts | 160° |
| 2026-04-26 19:26 | 52.51516 | -2.26249 | 280 ft | 20 kts | 101° |
| 2026-04-26 19:26 | 52.51434 | -2.26044 | 283 ft | 21 kts | 137° |
| 2026-04-26 19:26 | 52.51293 | -2.25925 | 286 ft | 25 kts | 121° |
| 2026-04-26 19:26 | 52.51251 | -2.25663 | 291 ft | 21 kts | 70° |
| 2026-04-26 19:27 | 52.51317 | -2.25645 | 291 ft | 0 kts | 334° |
| 2026-04-26 19:29 | 52.51481 | -2.25765 | 287 ft | 64 kts | 337° |
| 2026-04-26 19:29 | 52.52075 | -2.26211 | 335 ft | 113 kts | 333° |
| 2026-04-26 19:29 | 52.52730 | -2.26854 | 848 ft | 101 kts | 319° |
| 2026-04-26 19:29 | 52.53411 | -2.27395 | 1088 ft | 126 kts | 338° |
| 2026-04-26 19:30 | 52.54270 | -2.27956 | 1307 ft | 138 kts | 336° |
| 2026-04-26 19:30 | 52.55018 | -2.28941 | 1503 ft | 141 kts | 303° |
| 2026-04-26 19:30 | 52.55329 | -2.30423 | 1690 ft | 140 kts | 263° |
| 2026-04-26 19:30 | 52.55197 | -2.31458 | 1819 ft | 140 kts | 254° |
| 2026-04-26 19:31 | 52.54835 | -2.33510 | 2072 ft | 142 kts | 244° |
| 2026-04-26 19:31 | 52.54405 | -2.34975 | 2253 ft | 143 kts | 243° |
| 2026-04-26 19:31 | 52.53942 | -2.36426 | 2429 ft | 143 kts | 232° |
| 2026-04-26 19:31 | 52.53259 | -2.37613 | 2611 ft | 143 kts | 225° |
| 2026-04-26 19:32 | 52.52559 | -2.38785 | 2788 ft | 144 kts | 225° |
| 2026-04-26 19:32 | 52.51942 | -2.40091 | 2964 ft | 146 kts | 240° |
| 2026-04-26 19:32 | 52.51609 | -2.41663 | 3140 ft | 147 kts | 262° |
| 2026-04-26 19:32 | 52.51553 | -2.43427 | 3316 ft | 161 kts | 267° |
| 2026-04-26 19:33 | 52.51535 | -2.45316 | 3501 ft | 169 kts | 268° |
| 2026-04-26 19:33 | 52.51524 | -2.47242 | 3683 ft | 173 kts | 268° |
| 2026-04-26 19:33 | 52.51510 | -2.49229 | 3870 ft | 175 kts | 269° |
| 2026-04-26 19:33 | 52.51498 | -2.51240 | 4049 ft | 177 kts | 268° |
| 2026-04-26 19:34 | 52.51481 | -2.53266 | 4228 ft | 178 kts | 268° |
| 2026-04-26 19:34 | 52.51466 | -2.55304 | 4409 ft | 179 kts | 268° |
| 2026-04-26 19:34 | 52.51451 | -2.57356 | 4590 ft | 181 kts | 268° |
| 2026-04-26 19:34 | 52.51434 | -2.59431 | 4774 ft | 182 kts | 269° |
| 2026-04-26 19:35 | 52.51417 | -2.61520 | 4954 ft | 183 kts | 269° |
| 2026-04-26 19:35 | 52.51400 | -2.63651 | 4998 ft | 191 kts | 269° |
| 2026-04-26 19:35 | 52.51381 | -2.65858 | 5003 ft | 195 kts | 269° |
| 2026-04-26 19:35 | 52.51361 | -2.68103 | 5007 ft | 198 kts | 269° |
| 2026-04-26 19:36 | 52.51340 | -2.70375 | 5011 ft | 199 kts | 269° |
| 2026-04-26 19:36 | 52.51327 | -2.71887 | 5011 ft | 200 kts | 269° |
| 2026-04-26 19:36 | 52.51299 | -2.74925 | 5011 ft | 201 kts | 269° |
| 2026-04-26 19:36 | 52.51277 | -2.77221 | 5012 ft | 201 kts | 269° |
| 2026-04-26 19:37 | 52.51255 | -2.79518 | 5011 ft | 201 kts | 269° |
| 2026-04-26 19:37 | 52.51233 | -2.81816 | 5011 ft | 201 kts | 269° |
| 2026-04-26 19:37 | 52.51211 | -2.84115 | 5011 ft | 202 kts | 269° |
| 2026-04-26 19:37 | 52.51205 | -2.86411 | 5010 ft | 201 kts | 274° |
| 2026-04-26 19:38 | 52.51607 | -2.88602 | 5005 ft | 202 kts | 297° |
| 2026-04-26 19:38 | 52.52355 | -2.90481 | 5003 ft | 191 kts | 304° |
| 2026-04-26 19:38 | 52.53093 | -2.92273 | 4895 ft | 189 kts | 304° |
| 2026-04-26 19:38 | 52.53816 | -2.94060 | 4788 ft | 187 kts | 303° |
| 2026-04-26 19:39 | 52.54537 | -2.95838 | 4680 ft | 186 kts | 303° |
| 2026-04-26 19:39 | 52.55253 | -2.97605 | 4578 ft | 185 kts | 303° |
| 2026-04-26 19:39 | 52.55960 | -2.99341 | 4474 ft | 185 kts | 303° |
| 2026-04-26 19:39 | 52.56673 | -3.01099 | 4371 ft | 184 kts | 302° |
| 2026-04-26 19:40 | 52.57379 | -3.02848 | 4270 ft | 183 kts | 302° |
| 2026-04-26 19:40 | 52.58082 | -3.04584 | 4168 ft | 182 kts | 302° |
| 2026-04-26 19:40 | 52.58781 | -3.06312 | 4061 ft | 181 kts | 302° |
| 2026-04-26 19:40 | 52.59475 | -3.08028 | 4010 ft | 178 kts | 302° |
| 2026-04-26 19:41 | 52.60152 | -3.09705 | 4006 ft | 174 kts | 302° |
| 2026-04-26 19:41 | 52.60825 | -3.11373 | 3945 ft | 176 kts | 302° |
| 2026-04-26 19:41 | 52.61508 | -3.13065 | 3852 ft | 178 kts | 302° |
| 2026-04-26 19:41 | 52.61963 | -3.14194 | 3779 ft | 179 kts | 302° |
| 2026-04-26 19:42 | 52.62888 | -3.16490 | 3646 ft | 180 kts | 302° |
| 2026-04-26 19:42 | 52.63588 | -3.18232 | 3454 ft | 185 kts | 302° |
| 2026-04-26 19:42 | 52.64241 | -3.20054 | 3242 ft | 184 kts | 287° |
| 2026-04-26 19:42 | 52.64212 | -3.22016 | 3039 ft | 169 kts | 245° |
| 2026-04-26 19:43 | 52.63458 | -3.23372 | 2830 ft | 158 kts | 214° |
| 2026-04-26 19:43 | 52.62563 | -3.24365 | 2620 ft | 152 kts | 213° |
| 2026-04-26 19:43 | 52.61683 | -3.25309 | 2412 ft | 150 kts | 213° |
| 2026-04-26 19:43 | 52.60811 | -3.26230 | 2200 ft | 147 kts | 213° |
| 2026-04-26 19:44 | 52.59945 | -3.27129 | 2016 ft | 145 kts | 213° |
| 2026-04-26 19:44 | 52.59122 | -3.27941 | 2000 ft | 135 kts | 204° |
| 2026-04-26 19:44 | 52.58259 | -3.27802 | 1995 ft | 125 kts | 144° |
| 2026-04-26 19:44 | 52.57753 | -3.26712 | 1996 ft | 116 kts | 126° |
| 2026-04-26 19:45 | 52.57310 | -3.25672 | 1998 ft | 107 kts | 127° |
| 2026-04-26 19:45 | 52.56897 | -3.24685 | 1998 ft | 103 kts | 127° |
| 2026-04-26 19:45 | 52.56642 | -3.23640 | 1996 ft | 100 kts | 79° |
| 2026-04-26 19:45 | 52.57072 | -3.22737 | 1900 ft | 109 kts | 45° |
| 2026-04-26 19:46 | 52.57623 | -3.21774 | 1719 ft | 121 kts | 46° |
| 2026-04-26 19:46 | 52.58215 | -3.20757 | 1548 ft | 125 kts | 46° |
| 2026-04-26 19:46 | 52.58817 | -3.19785 | 1372 ft | 117 kts | 39° |
| 2026-04-26 19:46 | 52.59430 | -3.19027 | 1105 ft | 99 kts | 34° |
| 2026-04-26 19:47 | 52.60019 | -3.18416 | 940 ft | 100 kts | 30° |
| 2026-04-26 19:47 | 52.60430 | -3.18028 | 837 ft | 104 kts | 32° |
| 2026-04-26 19:47 | 52.61226 | -3.17194 | 669 ft | 100 kts | 34° |
| 2026-04-26 19:47 | 52.61812 | -3.16555 | 463 ft | 100 kts | 34° |
| 2026-04-26 19:48 | 52.62319 | -3.15964 | 290 ft | 82 kts | 37° |
| 2026-04-26 19:48 | 52.62717 | -3.15501 | 256 ft | 49 kts | 36° |
| 2026-04-26 19:48 | 52.62949 | -3.15230 | 259 ft | 37 kts | 33° |
| 2026-04-26 19:48 | 52.63139 | -3.15017 | 255 ft | 12 kts | 26° |
| 2026-04-26 19:49 | 52.63188 | -3.15071 | 254 ft | 10 kts | 309° |
| 2026-04-26 19:49 | 52.63195 | -3.15086 | 254 ft | 0 kts | 305° |
| 2026-04-26 20:40 | 52.63203 | -3.15089 | 251 ft | 6 kts | 29° |
| 2026-04-26 20:40 | 52.63174 | -3.15039 | 252 ft | 7 kts | 131° |
| 2026-04-26 20:40 | 52.63140 | -3.15009 | 253 ft | 6 kts | 213° |
| 2026-04-26 20:40 | 52.63052 | -3.15108 | 254 ft | 48 kts | 216° |
| 2026-04-26 20:41 | 52.62565 | -3.15676 | 308 ft | 113 kts | 216° |
| 2026-04-26 20:41 | 52.61940 | -3.16448 | 811 ft | 108 kts | 221° |
| 2026-04-26 20:41 | 52.61466 | -3.17433 | 1277 ft | 116 kts | 237° |
| 2026-04-26 20:41 | 52.61063 | -3.18594 | 1695 ft | 127 kts | 245° |
| 2026-04-26 20:42 | 52.60771 | -3.20068 | 1898 ft | 141 kts | 252° |
| 2026-04-26 20:42 | 52.60464 | -3.21668 | 2133 ft | 153 kts | 252° |
| 2026-04-26 20:42 | 52.60128 | -3.23400 | 2361 ft | 163 kts | 251° |
| 2026-04-26 20:42 | 52.59431 | -3.24852 | 2572 ft | 167 kts | 208° |
| 2026-04-26 20:43 | 52.58286 | -3.25069 | 2760 ft | 173 kts | 165° |
| 2026-04-26 20:43 | 52.57339 | -3.23878 | 2965 ft | 178 kts | 123° |
| 2026-04-26 20:43 | 52.57080 | -3.21849 | 3003 ft | 190 kts | 88° |
| 2026-04-26 20:43 | 52.57258 | -3.19657 | 3009 ft | 196 kts | 83° |
| 2026-04-26 20:44 | 52.57465 | -3.17484 | 3172 ft | 190 kts | 83° |
| 2026-04-26 20:44 | 52.57666 | -3.15379 | 3452 ft | 184 kts | 83° |
| 2026-04-26 20:44 | 52.57864 | -3.13324 | 3726 ft | 180 kts | 83° |
| 2026-04-26 20:44 | 52.58055 | -3.11301 | 3998 ft | 176 kts | 83° |
| 2026-04-26 20:45 | 52.58234 | -3.09360 | 4269 ft | 169 kts | 83° |
| 2026-04-26 20:45 | 52.58407 | -3.07471 | 4543 ft | 165 kts | 83° |
| 2026-04-26 20:45 | 52.58515 | -3.05608 | 4818 ft | 163 kts | 94° |
| 2026-04-26 20:45 | 52.58269 | -3.03814 | 5096 ft | 161 kts | 115° |
| 2026-04-26 20:46 | 52.57899 | -3.02761 | 5280 ft | 160 kts | 125° |
| 2026-04-26 20:46 | 52.57258 | -3.01256 | 5552 ft | 161 kts | 127° |
| 2026-04-26 20:46 | 52.56607 | -2.99759 | 5829 ft | 161 kts | 127° |
| 2026-04-26 20:46 | 52.55955 | -2.98256 | 6104 ft | 162 kts | 127° |
| 2026-04-26 20:47 | 52.55303 | -2.96747 | 6388 ft | 162 kts | 127° |
| 2026-04-26 20:47 | 52.54870 | -2.95745 | 6575 ft | 163 kts | 127° |
| 2026-04-26 20:47 | 52.53994 | -2.93706 | 6937 ft | 164 kts | 127° |
| 2026-04-26 20:47 | 52.53304 | -2.92119 | 6993 ft | 177 kts | 127° |
| 2026-04-26 20:48 | 52.52570 | -2.90425 | 7007 ft | 186 kts | 127° |
| 2026-04-26 20:48 | 52.51807 | -2.88664 | 7009 ft | 192 kts | 127° |
| 2026-04-26 20:48 | 52.51036 | -2.86880 | 7008 ft | 195 kts | 127° |
| 2026-04-26 20:48 | 52.50248 | -2.85059 | 7006 ft | 196 kts | 127° |
| 2026-04-26 20:49 | 52.49460 | -2.83227 | 7005 ft | 197 kts | 124° |
| 2026-04-26 20:49 | 52.49123 | -2.81065 | 6994 ft | 200 kts | 86° |
| 2026-04-26 20:49 | 52.49670 | -2.79008 | 6987 ft | 200 kts | 47° |
| 2026-04-26 20:49 | 52.50835 | -2.77812 | 6989 ft | 196 kts | 21° |
| 2026-04-26 20:50 | 52.52082 | -2.76984 | 6989 ft | 190 kts | 20° |
| 2026-04-26 20:50 | 52.53295 | -2.76194 | 6987 ft | 185 kts | 21° |
| 2026-04-26 20:50 | 52.54423 | -2.75210 | 6981 ft | 183 kts | 33° |
| 2026-04-26 20:50 | 52.55384 | -2.73854 | 6982 ft | 181 kts | 47° |
| 2026-04-26 20:51 | 52.56043 | -2.72100 | 6984 ft | 181 kts | 65° |
| 2026-04-26 20:51 | 52.56531 | -2.70203 | 6984 ft | 180 kts | 68° |
| 2026-04-26 20:51 | 52.57028 | -2.68262 | 6797 ft | 189 kts | 66° |
| 2026-04-26 20:51 | 52.57556 | -2.66262 | 6554 ft | 195 kts | 66° |
| 2026-04-26 20:52 | 52.58060 | -2.64164 | 6241 ft | 200 kts | 77° |
| 2026-04-26 20:52 | 52.58087 | -2.61874 | 5911 ft | 201 kts | 101° |
| 2026-04-26 20:52 | 52.57724 | -2.59657 | 5587 ft | 201 kts | 107° |
| 2026-04-26 20:52 | 52.57411 | -2.57426 | 5261 ft | 201 kts | 94° |
| 2026-04-26 20:53 | 52.57525 | -2.55140 | 4935 ft | 200 kts | 83° |
| 2026-04-26 20:53 | 52.57716 | -2.52879 | 4600 ft | 199 kts | 83° |
| 2026-04-26 20:53 | 52.57907 | -2.50652 | 4266 ft | 190 kts | 83° |
| 2026-04-26 20:53 | 52.58087 | -2.48572 | 3893 ft | 179 kts | 83° |
| 2026-04-26 20:54 | 52.58254 | -2.46571 | 3508 ft | 174 kts | 83° |
| 2026-04-26 20:54 | 52.58417 | -2.44610 | 3119 ft | 172 kts | 83° |
| 2026-04-26 20:54 | 52.58583 | -2.42671 | 2738 ft | 171 kts | 83° |
| 2026-04-26 20:54 | 52.58751 | -2.40738 | 2351 ft | 171 kts | 83° |
| 2026-04-26 20:55 | 52.58917 | -2.38833 | 2010 ft | 169 kts | 83° |
| 2026-04-26 20:55 | 52.59005 | -2.37029 | 1981 ft | 149 kts | 100° |
| 2026-04-26 20:55 | 52.58612 | -2.35566 | 1983 ft | 134 kts | 121° |
| 2026-04-26 20:55 | 52.58181 | -2.34250 | 1983 ft | 127 kts | 121° |
| 2026-04-26 20:56 | 52.57757 | -2.33010 | 1939 ft | 124 kts | 126° |
| 2026-04-26 20:56 | 52.57222 | -2.31984 | 1826 ft | 112 kts | 135° |
| 2026-04-26 20:56 | 52.56709 | -2.31029 | 1639 ft | 111 kts | 134° |
| 2026-04-26 20:56 | 52.56184 | -2.30147 | 1523 ft | 110 kts | 134° |
| 2026-04-26 20:57 | 52.55611 | -2.29251 | 1265 ft | 104 kts | 144° |
| 2026-04-26 20:57 | 52.55082 | -2.28634 | 991 ft | 84 kts | 148° |
| 2026-04-26 20:57 | 52.54546 | -2.28148 | 827 ft | 93 kts | 153° |
| 2026-04-26 20:57 | 52.53983 | -2.27632 | 788 ft | 94 kts | 152° |
| 2026-04-26 20:58 | 52.53395 | -2.27177 | 661 ft | 93 kts | 154° |
| 2026-04-26 20:58 | 52.52768 | -2.26705 | 464 ft | 107 kts | 156° |
| 2026-04-26 20:58 | 52.52095 | -2.26199 | 317 ft | 100 kts | 157° |
| 2026-04-26 20:58 | 52.51546 | -2.25819 | 285 ft | 72 kts | 155° |
| 2026-04-26 20:59 | 52.51281 | -2.25629 | 291 ft | 26 kts | 158° |
| 2026-04-26 20:59 | 52.51248 | -2.25732 | 288 ft | 13 kts | 274° |
| 2026-04-26 20:59 | 52.51275 | -2.25882 | 287 ft | 15 kts | 291° |
| 2026-04-26 20:59 | 52.51358 | -2.25984 | 285 ft | 16 kts | 337° |
| 2026-04-26 21:00 | 52.51455 | -2.26089 | 282 ft | 18 kts | 309° |
| 2026-04-26 21:00 | 52.51517 | -2.26272 | 280 ft | 19 kts | 279° |
| 2026-04-26 21:00 | 52.51559 | -2.26417 | 279 ft | 13 kts | 339° |
| 2026-04-26 21:00 | 52.51594 | -2.26438 | 278 ft | 0 kts | 340° |